Pagrindinis puslapis
METAR-TAF:

METAR-TAF

Oro uostai :

Choremabadas, Iranas

platuma: 33-26-11N, ilguma: 048-17-09E, Aukštis: 1155 m

Dabartinis oras

Ataskaita buvo paskelbta 1 valandą ir 12 minutes, ne 09:00 UTC
Vėjas 4 kt iš Pietų/Pietvakarių
Temperatūra 8°C
Drėgmė 57%
Slėgis 1021 hPa
Matomumas 10 km arba daugiau
Mažai debesys ne aukštis 4000 ft, aukštai iškilę kamuoliniai debesys.
Mažai debesys ne aukštis 4500 ft

METAR: OICK 270900Z 21004KT 9999 FEW040TCU FEW045 08/00 Q1021 A3016

Laikas: 13:42 (10:12 UTC)


TAF: trūkstamas

Orai ataskaitas ir orų prognozės (METAR, TAF).

turimą stotys yra geltonos ir raudonos taškus žemėlapyje.

Perkelti pele per norėdami pamatyti stoties vardą.

Tada spustelėkite, norėdami matyti oro stebėjimo ir prognozės.

Norėdami pakeisti žemėlapį: spustelėkite ant žalios mygtukų su juodo kryžiaus žemyn,; žalią mygtuką su brūkšneliu, jei norite nutolinti; arba žalių rodyklių gretimoms žemėlapius.


METAR-TAF: